Annapolis, Indiana
Current Conditions -  °F | °C
As of 7:55 AM on Tuesday 21 Oct 2014 (Local Time) from KPRG Reporting Station
Haze Haze  
Wind Chill: 46°   Ceiling: 5000
Heat Index: 46°   Visibility: 5mi
Dew Point: 46°   Wind: 0mph
Humidity: 99%   Direction: NA
Pressure: 30.08"   Gusts: NA
Location:  39.8468°N, 87.2662°W
Report Text: KPRG 211155Z AUTO 00000KT 5SM BR OVC050 08/08 A3008 RMK AO2 T00800078 10098 20071
Loading
Personal Weather Stations






























Interactive Weather Map
Tropical Storm Tracking
New forecast layout! Learn more

10-Day Weather Forecast

Advertisements
Track Severe Weather on mobile